createdAt,value
2022-11-16T00:01:43.038Z,100392.16
2022-11-16T00:04:12.470Z,100386.44
2022-11-16T00:06:40.419Z,100383.31
2022-11-16T00:09:23.623Z,100384.63
2022-11-16T00:11:54.955Z,100382.28
2022-11-16T00:14:24.952Z,100378.72
2022-11-16T00:16:52.894Z,100387.44
2022-11-16T00:19:20.741Z,100382.81
2022-11-16T00:21:48.560Z,100374.84
2022-11-16T00:24:17.926Z,100378.25
2022-11-16T00:26:45.968Z,100370.09
2022-11-16T00:29:16.916Z,100372.25
2022-11-16T00:31:45.316Z,100372.75
2022-11-16T00:34:13.186Z,100378.66
2022-11-16T00:36:41.153Z,100374.16
2022-11-16T00:39:11.399Z,100376.41
2022-11-16T00:41:39.158Z,100383.13
2022-11-16T00:44:06.978Z,100384.84
2022-11-16T00:46:36.491Z,100378.78
2022-11-16T00:49:05.420Z,100372.19
2022-11-16T00:51:33.463Z,100375.31
2022-11-16T00:54:01.379Z,100377.56
2022-11-16T00:56:29.355Z,100372.78
2022-11-16T00:58:57.067Z,100374.63
2022-11-16T01:01:24.999Z,100375.16
2022-11-16T01:03:54.223Z,100370.06
2022-11-16T01:06:23.349Z,100369.66
2022-11-16T01:08:51.643Z,100374.16
2022-11-16T01:11:37.463Z,100374.59
2022-11-16T01:14:07.657Z,100381.22
2022-11-16T01:16:35.453Z,100377.28
2022-11-16T01:19:05.745Z,100373.44
2022-11-16T01:21:34.074Z,100377.84
2022-11-16T01:24:02.067Z,100373.31
2022-11-16T01:26:29.881Z,100367.28
2022-11-16T01:28:59.606Z,100372.19
2022-11-16T01:31:27.370Z,100375.81
2022-11-16T01:33:55.853Z,100376.22
2022-11-16T01:36:24.920Z,100372.75
2022-11-16T01:38:52.721Z,100373.75
2022-11-16T01:41:22.724Z,100366.00
2022-11-16T01:43:53.906Z,100349.69
2022-11-16T01:46:21.769Z,100352.47
2022-11-16T01:48:54.188Z,100344.22
2022-11-16T01:51:22.808Z,100335.63
2022-11-16T01:53:52.474Z,100343.81
2022-11-16T01:56:20.236Z,100346.22
2022-11-16T01:58:48.246Z,100336.50
2022-11-16T02:01:16.073Z,100334.22
2022-11-16T02:03:43.989Z,100334.78
2022-11-16T02:06:32.001Z,100327.38
2022-11-16T02:09:38.450Z,100324.69
2022-11-16T02:12:41.457Z,100315.84
2022-11-16T02:15:20.816Z,100298.41
2022-11-16T02:18:01.239Z,100302.88
2022-11-16T02:20:48.288Z,100297.13
2022-11-16T02:23:37.461Z,100303.47
2022-11-16T02:26:26.083Z,100290.28
2022-11-16T02:29:08.379Z,100287.31
2022-11-16T02:31:38.921Z,100288.22
2022-11-16T02:34:11.061Z,100278.78
2022-11-16T02:36:42.391Z,100276.69
2022-11-16T02:39:15.783Z,100274.41
2022-11-16T02:41:46.903Z,100272.88
2022-11-16T02:44:20.314Z,100271.78
2022-11-16T02:46:53.595Z,100270.94
2022-11-16T02:49:22.174Z,100260.69
2022-11-16T02:51:51.885Z,100267.97
2022-11-16T02:54:21.455Z,100270.78
2022-11-16T02:56:53.331Z,100261.25
2022-11-16T02:59:23.697Z,100267.16
2022-11-16T03:01:59.081Z,100266.84
2022-11-16T03:04:33.497Z,100271.88
2022-11-16T03:07:06.629Z,100268.38
2022-11-16T03:09:38.252Z,100273.00
2022-11-16T03:12:09.779Z,100273.69
2022-11-16T03:14:44.051Z,100273.69
2022-11-16T03:17:16.850Z,100284.22
2022-11-16T03:19:50.608Z,100273.97
2022-11-16T03:22:24.253Z,100274.50
2022-11-16T03:24:52.366Z,100273.41
2022-11-16T03:27:28.538Z,100269.03
2022-11-16T03:30:04.921Z,100266.22
2022-11-16T03:32:41.832Z,100266.22
2022-11-16T03:35:16.554Z,100271.16
2022-11-16T03:37:47.049Z,100264.78
2022-11-16T03:40:16.824Z,100270.72
2022-11-16T03:42:46.785Z,100264.69
2022-11-16T03:45:17.486Z,100269.16
2022-11-16T03:47:46.132Z,100266.19
2022-11-16T03:50:13.899Z,100266.53
2022-11-16T03:52:41.718Z,100263.13
2022-11-16T03:55:10.288Z,100268.63
2022-11-16T03:57:38.028Z,100268.78
2022-11-16T04:00:07.253Z,100263.03
2022-11-16T04:02:36.347Z,100259.41
2022-11-16T04:05:21.541Z,100255.41
2022-11-16T04:08:07.311Z,100252.63
2022-11-16T04:10:52.683Z,100252.63
2022-11-16T04:13:45.185Z,100250.25
2022-11-16T04:16:30.414Z,100246.47
2022-11-16T04:19:16.800Z,100240.31
2022-11-16T04:22:06.416Z,100239.47
2022-11-16T04:24:35.969Z,100240.88
2022-11-16T04:27:24.609Z,100238.75
2022-11-16T04:29:52.899Z,100235.41
2022-11-16T04:32:38.161Z,100242.59
2022-11-16T04:35:25.172Z,100237.91
2022-11-16T04:37:53.402Z,100240.00
2022-11-16T04:40:23.203Z,100236.00
2022-11-16T04:42:54.559Z,100235.69
2022-11-16T04:45:41.330Z,100230.81
2022-11-16T04:48:10.029Z,100231.78
2022-11-16T04:50:39.596Z,100228.00
2022-11-16T04:53:07.995Z,100231.34
2022-11-16T04:55:36.536Z,100223.72
2022-11-16T04:58:05.263Z,100223.56
2022-11-16T05:00:33.304Z,100218.47
2022-11-16T05:03:01.858Z,100232.91
2022-11-16T05:05:30.049Z,100224.66
2022-11-16T05:07:59.148Z,100224.91
2022-11-16T05:10:26.933Z,100220.56
2022-11-16T05:12:54.660Z,100219.34
2022-11-16T05:15:22.454Z,100220.13
2022-11-16T05:17:51.082Z,100219.81
2022-11-16T05:20:36.616Z,100221.13
2022-11-16T05:23:05.895Z,100216.97
2022-11-16T05:25:36.615Z,100224.50
2022-11-16T05:28:04.916Z,100232.50
2022-11-16T05:30:32.617Z,100226.47
2022-11-16T05:33:00.354Z,100235.66
2022-11-16T05:35:28.077Z,100228.94
2022-11-16T05:37:55.867Z,100238.41
2022-11-16T05:40:25.026Z,100243.66
2022-11-16T05:42:52.748Z,100243.66
2022-11-16T05:45:21.254Z,100249.72
2022-11-16T05:47:49.114Z,100245.97
2022-11-16T05:50:17.295Z,100257.03
2022-11-16T05:52:45.044Z,100254.09
2022-11-16T05:55:12.819Z,100254.09
2022-11-16T05:57:41.956Z,100238.84
2022-11-16T06:00:10.996Z,100252.47
2022-11-16T06:02:38.725Z,100255.13
2022-11-16T06:05:06.918Z,100245.06
2022-11-16T06:07:34.777Z,100251.69
2022-11-16T06:10:02.581Z,100251.16
2022-11-16T06:12:30.337Z,100245.75
2022-11-16T06:14:59.461Z,100254.16
2022-11-16T06:17:27.204Z,100263.16
2022-11-16T06:19:54.966Z,100268.50
2022-11-16T06:22:22.690Z,100255.66
2022-11-16T06:24:50.434Z,100256.53
2022-11-16T06:27:18.187Z,100260.97
2022-11-16T06:29:45.958Z,100258.97
2022-11-16T06:32:15.349Z,100261.13
2022-11-16T06:34:43.096Z,100263.63
2022-11-16T06:37:10.868Z,100264.22
2022-11-16T06:39:38.674Z,100266.09
2022-11-16T06:42:06.509Z,100268.59
2022-11-16T06:44:34.457Z,100270.88
2022-11-16T06:47:02.193Z,100268.69
2022-11-16T06:49:31.695Z,100267.13
2022-11-16T06:51:59.424Z,100271.88
2022-11-16T06:54:27.226Z,100268.59
2022-11-16T06:56:54.958Z,100269.59
2022-11-16T06:59:22.787Z,100267.97
2022-11-16T07:01:51.093Z,100265.47
2022-11-16T07:04:18.890Z,100274.25
2022-11-16T07:06:48.090Z,100272.47
2022-11-16T07:09:16.357Z,100283.19
2022-11-16T07:11:44.172Z,100281.50
2022-11-16T07:14:12.404Z,100280.97
2022-11-16T07:16:40.199Z,100273.66
2022-11-16T07:19:07.941Z,100282.06
2022-11-16T07:21:35.635Z,100283.81
2022-11-16T07:24:05.254Z,100286.72
2022-11-16T07:26:33.530Z,100285.50
2022-11-16T07:29:01.875Z,100279.75
2022-11-16T07:31:29.617Z,100274.88
2022-11-16T07:33:57.313Z,100271.25
2022-11-16T07:36:25.074Z,100279.44
2022-11-16T07:38:52.827Z,100284.78
2022-11-16T07:41:21.999Z,100282.44
2022-11-16T07:43:52.980Z,100291.22
2022-11-16T07:46:46.583Z,100277.78
2022-11-16T07:49:14.257Z,100287.94
2022-11-16T07:51:41.992Z,100284.09
2022-11-16T07:54:12.740Z,100287.88
2022-11-16T07:56:42.447Z,100287.47
2022-11-16T07:59:10.666Z,100286.19
2022-11-16T08:01:38.512Z,100297.03
2022-11-16T08:04:06.252Z,100292.00
2022-11-16T08:06:33.987Z,100296.56
2022-11-16T08:09:02.118Z,100292.66
2022-11-16T08:11:29.888Z,100297.25
2022-11-16T08:13:59.114Z,100295.28
2022-11-16T08:16:26.790Z,100294.53
2022-11-16T08:18:54.613Z,100289.72
2022-11-16T08:21:22.375Z,100291.22
2022-11-16T08:23:55.191Z,100286.72
2022-11-16T08:26:24.593Z,100282.59
2022-11-16T08:28:53.719Z,100287.19
2022-11-16T08:31:25.161Z,100277.94
2022-11-16T08:33:52.955Z,100282.34
2022-11-16T08:36:21.288Z,100281.59
2022-11-16T08:38:50.580Z,100272.69
2022-11-16T08:41:19.416Z,100273.56
2022-11-16T08:43:50.484Z,100263.91
2022-11-16T08:46:18.569Z,100271.25
2022-11-16T08:48:47.758Z,100268.19
2022-11-16T08:51:19.517Z,100260.53
2022-11-16T08:53:49.138Z,100262.09
2022-11-16T08:56:18.756Z,100253.19
2022-11-16T08:58:48.839Z,100256.03
2022-11-16T09:01:21.567Z,100248.06
2022-11-16T09:03:51.069Z,100242.97
2022-11-16T09:06:19.045Z,100243.75
2022-11-16T09:08:47.802Z,100240.34
2022-11-16T09:11:18.137Z,100240.03
2022-11-16T09:13:46.835Z,100247.41
2022-11-16T09:16:16.614Z,100243.94
2022-11-16T09:18:46.281Z,100238.06
2022-11-16T09:21:18.041Z,100240.69
2022-11-16T09:23:45.831Z,100236.59
2022-11-16T09:26:13.762Z,100240.22
2022-11-16T09:28:41.864Z,100231.28
2022-11-16T09:31:10.238Z,100230.34
2022-11-16T09:33:38.462Z,100232.81
2022-11-16T09:36:08.486Z,100233.72
2022-11-16T09:39:13.289Z,100218.03
2022-11-16T09:41:55.945Z,100226.09
2022-11-16T09:44:49.945Z,100217.81
2022-11-16T09:47:21.633Z,100213.91
2022-11-16T09:49:56.837Z,100220.72
2022-11-16T09:52:34.141Z,100215.00
2022-11-16T09:55:10.818Z,100211.25
2022-11-16T09:57:42.764Z,100214.94
2022-11-16T10:00:15.345Z,100214.94
2022-11-16T10:02:46.124Z,100206.13
2022-11-16T10:05:21.709Z,100209.81
2022-11-16T10:07:51.757Z,100211.94
2022-11-16T10:10:35.855Z,100214.03
2022-11-16T10:13:17.203Z,100213.56
2022-11-16T10:15:58.009Z,100214.41
2022-11-16T10:18:38.838Z,100218.16
2022-11-16T10:21:19.385Z,100213.78
2022-11-16T10:24:01.473Z,100204.50
2022-11-16T10:26:39.023Z,100201.47
2022-11-16T10:29:23.124Z,100198.72
2022-11-16T10:32:02.931Z,100193.06
2022-11-16T10:34:42.583Z,100199.31
2022-11-16T10:37:11.520Z,100169.81
2022-11-16T10:39:41.073Z,100185.94
2022-11-16T10:42:13.901Z,100176.94
2022-11-16T10:44:45.603Z,100178.84
2022-11-16T10:47:19.855Z,100174.28
2022-11-16T10:49:56.575Z,100177.94
2022-11-16T10:52:25.193Z,100173.41
2022-11-16T10:54:54.108Z,100174.69
2022-11-16T10:57:24.851Z,100175.25
2022-11-16T10:59:55.684Z,100174.31
2022-11-16T11:02:37.821Z,100168.66
2022-11-16T11:05:17.127Z,100170.69
2022-11-16T11:07:47.787Z,100182.41
2022-11-16T11:10:29.657Z,100179.13
2022-11-16T11:13:09.004Z,100172.94
2022-11-16T11:15:37.199Z,100184.09
2022-11-16T11:18:14.577Z,100179.50
2022-11-16T11:20:45.524Z,100187.91
2022-11-16T11:23:16.968Z,100182.53
2022-11-16T11:25:52.800Z,100184.72
2022-11-16T11:28:26.158Z,100180.03
2022-11-16T11:30:57.490Z,100177.38
2022-11-16T11:33:26.791Z,100182.06
2022-11-16T11:36:02.399Z,100179.88
2022-11-16T11:38:30.754Z,100184.13
2022-11-16T11:41:00.193Z,100187.56
2022-11-16T11:43:30.155Z,100191.72
2022-11-16T11:46:07.324Z,100183.31
2022-11-16T11:48:47.773Z,100183.47
2022-11-16T11:51:22.134Z,100180.88
2022-11-16T11:53:56.565Z,100183.38
2022-11-16T11:56:24.582Z,100181.81
2022-11-16T11:58:54.253Z,100175.91
2022-11-16T12:01:30.815Z,100174.34
2022-11-16T12:04:30.863Z,100174.19
2022-11-16T12:07:09.019Z,100176.19
2022-11-16T12:09:47.325Z,100181.97
2022-11-16T12:12:30.012Z,100181.09
2022-11-16T12:15:25.478Z,100179.31
2022-11-16T12:18:04.559Z,100195.22
2022-11-16T12:20:43.189Z,100183.19
2022-11-16T12:23:33.516Z,100184.19
2022-11-16T12:26:12.149Z,100184.53
2022-11-16T12:28:56.179Z,100182.38
2022-11-16T12:32:02.033Z,100178.03
2022-11-16T12:34:43.236Z,100184.53
2022-11-16T12:37:17.651Z,100175.88
2022-11-16T12:39:53.224Z,100180.03
2022-11-16T12:42:43.119Z,100180.91
2022-11-16T12:45:37.800Z,100184.41
2022-11-16T12:48:29.799Z,100178.38
2022-11-16T12:51:00.563Z,100186.41
2022-11-16T12:53:45.930Z,100184.44
2022-11-16T12:56:24.460Z,100179.91
2022-11-16T12:59:23.218Z,100178.16
2022-11-16T13:02:04.399Z,100176.47
2022-11-16T13:04:41.012Z,100176.81
2022-11-16T13:07:13.342Z,100182.94
2022-11-16T13:09:44.749Z,100168.75
2022-11-16T13:12:17.272Z,100171.09
2022-11-16T13:14:47.925Z,100161.22
2022-11-16T13:17:22.854Z,100165.72
2022-11-16T13:20:11.687Z,100163.56
2022-11-16T13:22:46.674Z,100174.59
2022-11-16T13:25:21.729Z,100165.72
2022-11-16T13:27:56.870Z,100168.22
2022-11-16T13:30:29.673Z,100157.78
2022-11-16T13:33:14.685Z,100166.75
2022-11-16T13:35:44.089Z,100160.22
2022-11-16T13:38:13.463Z,100161.69
2022-11-16T13:40:42.386Z,100156.72
2022-11-16T13:43:20.524Z,100160.69
2022-11-16T13:45:58.051Z,100152.16
2022-11-16T13:48:30.495Z,100152.50
2022-11-16T13:51:03.959Z,100149.97
2022-11-16T13:54:43.072Z,100158.38
2022-11-16T13:56:29.000Z,100155.63
2022-11-16T13:58:59.539Z,100160.53
2022-11-16T14:01:57.646Z,100154.88
2022-11-16T14:04:43.401Z,100148.59
2022-11-16T14:07:32.934Z,100154.31
2022-11-16T14:10:01.416Z,100154.16
2022-11-16T14:12:59.234Z,100153.75
2022-11-16T14:15:29.670Z,100152.66
2022-11-16T14:18:00.984Z,100151.44
2022-11-16T14:20:46.181Z,100144.91
2022-11-16T14:23:28.034Z,100147.75
2022-11-16T14:26:08.177Z,100148.44
2022-11-16T14:29:00.670Z,100155.69
2022-11-16T14:31:31.044Z,100154.81
2022-11-16T14:34:01.622Z,100151.81
2022-11-16T14:36:39.022Z,100159.69
2022-11-16T14:39:29.346Z,100154.66
2022-11-16T14:41:59.873Z,100153.22
2022-11-16T14:44:30.751Z,100159.41
2022-11-16T14:46:58.807Z,100150.28
2022-11-16T14:49:28.987Z,100146.47
2022-11-16T14:51:59.648Z,100145.94
2022-11-16T14:54:36.161Z,100149.81
2022-11-16T14:57:06.903Z,100145.94
2022-11-16T14:59:34.888Z,100143.06
2022-11-16T15:02:14.189Z,100154.63
2022-11-16T15:04:42.089Z,100140.84
2022-11-16T15:07:09.929Z,100144.84
2022-11-16T15:09:41.777Z,100145.38
2022-11-16T15:12:33.446Z,100147.16
2022-11-16T15:15:05.468Z,100157.03
2022-11-16T15:17:34.013Z,100148.22
2022-11-16T15:20:03.794Z,100147.84
2022-11-16T15:22:33.428Z,100144.81
2022-11-16T15:25:02.878Z,100146.31
2022-11-16T15:27:37.707Z,100152.31
2022-11-16T15:30:15.714Z,100143.06
2022-11-16T15:32:45.224Z,100141.25
2022-11-16T15:35:18.701Z,100141.16
2022-11-16T15:37:46.477Z,100142.22
2022-11-16T15:40:16.071Z,100136.63
2022-11-16T15:42:45.185Z,100135.56
2022-11-16T15:45:22.562Z,100131.81
2022-11-16T15:47:53.714Z,100132.78
2022-11-16T15:50:24.217Z,100133.75
2022-11-16T15:52:55.131Z,100135.28
2022-11-16T15:55:32.722Z,100126.97
2022-11-16T15:58:03.228Z,100129.78
2022-11-16T16:00:32.978Z,100125.63
2022-11-16T16:03:03.342Z,100123.53
2022-11-16T16:05:35.845Z,100112.78
2022-11-16T16:08:04.080Z,100113.25
2022-11-16T16:10:33.398Z,100120.44
2022-11-16T16:13:02.371Z,100123.97
2022-11-16T16:15:33.840Z,100134.34
2022-11-16T16:18:02.932Z,100134.03
2022-11-16T16:20:33.201Z,100125.03
2022-11-16T16:23:08.893Z,100132.69
2022-11-16T16:25:38.297Z,100128.84
2022-11-16T16:28:06.471Z,100129.38
2022-11-16T16:30:35.779Z,100129.19
2022-11-16T16:33:03.639Z,100126.19
2022-11-16T16:35:31.372Z,100127.22
2022-11-16T16:38:01.183Z,100131.63
2022-11-16T16:40:29.197Z,100127.94
2022-11-16T16:42:58.913Z,100128.75
2022-11-16T16:45:32.454Z,100133.06
2022-11-16T16:48:00.475Z,100140.25
2022-11-16T16:50:28.176Z,100133.94
2022-11-16T16:52:55.883Z,100123.00
2022-11-16T16:55:23.671Z,100124.38
2022-11-16T16:57:51.377Z,100124.94
2022-11-16T17:00:20.813Z,100128.44
2022-11-16T17:02:48.585Z,100133.63
2022-11-16T17:05:16.614Z,100129.72
2022-11-16T17:07:44.368Z,100127.56
2022-11-16T17:10:12.125Z,100133.41
2022-11-16T17:12:39.882Z,100131.34
2022-11-16T17:15:08.864Z,100131.44
2022-11-16T17:17:41.202Z,100121.38
2022-11-16T17:20:11.390Z,100120.72
2022-11-16T17:22:39.122Z,100128.59
2022-11-16T17:25:07.085Z,100129.72
2022-11-16T17:27:34.792Z,100128.16
2022-11-16T17:30:02.541Z,100133.06
2022-11-16T17:32:31.087Z,100133.66
2022-11-16T17:35:00.233Z,100140.56
2022-11-16T17:37:28.034Z,100139.38
2022-11-16T17:39:55.812Z,100137.19
2022-11-16T17:42:23.616Z,100143.81
2022-11-16T17:44:53.442Z,100151.31
2022-11-16T17:47:21.243Z,100142.75
2022-11-16T17:49:48.989Z,100145.44
2022-11-16T17:52:18.098Z,100139.53
2022-11-16T17:54:45.878Z,100131.53
2022-11-16T17:57:13.698Z,100142.22
2022-11-16T17:59:41.465Z,100143.06
2022-11-16T18:02:11.491Z,100138.25
2022-11-16T18:04:39.241Z,100155.97
2022-11-16T18:07:07.062Z,100151.78
2022-11-16T18:09:36.197Z,100149.94
2022-11-16T18:12:04.166Z,100152.59
2022-11-16T18:14:31.999Z,100143.03
2022-11-16T18:16:59.773Z,100139.50
2022-11-16T18:19:27.463Z,100143.94
2022-11-16T18:21:55.180Z,100151.78
2022-11-16T18:24:22.924Z,100145.53
2022-11-16T18:26:51.989Z,100147.22
2022-11-16T18:29:19.719Z,100148.84
2022-11-16T18:31:47.423Z,100158.72
2022-11-16T18:34:15.769Z,100155.53
2022-11-16T18:36:43.671Z,100151.31
2022-11-16T18:39:11.376Z,100158.19
2022-11-16T18:41:48.595Z,100151.69
2022-11-16T18:44:20.715Z,100148.03
2022-11-16T18:46:48.477Z,100148.84
2022-11-16T18:49:16.335Z,100138.69
2022-11-16T18:51:44.117Z,100138.63
2022-11-16T18:54:11.862Z,100136.25
2022-11-16T18:56:42.107Z,100125.03
2022-11-16T18:59:09.861Z,100131.06
2022-11-16T19:01:39.012Z,100137.72
2022-11-16T19:04:07.564Z,100136.50
2022-11-16T19:06:35.350Z,100143.53
2022-11-16T19:09:04.310Z,100141.69
2022-11-16T19:11:32.090Z,100138.81
2022-11-16T19:14:03.629Z,100132.69
2022-11-16T19:16:32.212Z,100147.16
2022-11-16T19:19:02.292Z,100145.16
2022-11-16T19:21:30.066Z,100133.28
2022-11-16T19:23:58.619Z,100139.50
2022-11-16T19:26:27.828Z,100136.81
2022-11-16T19:28:56.079Z,100136.44
2022-11-16T19:31:26.600Z,100143.69
2022-11-16T19:33:56.180Z,100142.94
2022-11-16T19:36:26.122Z,100153.09
2022-11-16T19:38:54.270Z,100151.81
2022-11-16T19:41:23.407Z,100152.44
2022-11-16T19:43:52.855Z,100151.66
2022-11-16T19:46:21.550Z,100148.59
2022-11-16T19:48:50.765Z,100151.28
2022-11-16T19:51:20.454Z,100151.75
2022-11-16T19:53:49.391Z,100155.19
2022-11-16T19:56:19.331Z,100160.84
2022-11-16T19:58:47.678Z,100167.97
2022-11-16T20:01:17.318Z,100166.34
2022-11-16T20:03:44.993Z,100167.03
2022-11-16T20:06:14.926Z,100164.06
2022-11-16T20:08:44.006Z,100158.88
2022-11-16T20:11:14.382Z,100167.03
2022-11-16T20:13:42.612Z,100174.22
2022-11-16T20:16:12.079Z,100170.16
2022-11-16T20:18:40.509Z,100176.03
2022-11-16T20:21:09.480Z,100169.41
2022-11-16T20:23:37.568Z,100168.28
2022-11-16T20:26:06.255Z,100174.59
2022-11-16T20:28:39.977Z,100168.34
2022-11-16T20:31:11.215Z,100169.03
2022-11-16T20:33:39.301Z,100171.47
2022-11-16T20:36:09.576Z,100179.25
2022-11-16T20:38:38.722Z,100185.00
2022-11-16T20:41:10.940Z,100193.03
2022-11-16T20:43:40.348Z,100195.28
2022-11-16T20:46:08.961Z,100185.59
2022-11-16T20:48:37.096Z,100176.88
2022-11-16T20:51:05.410Z,100176.19
2022-11-16T20:53:33.517Z,100182.94
2022-11-16T20:56:03.120Z,100180.75
2022-11-16T20:58:31.028Z,100186.69
2022-11-16T21:01:02.027Z,100179.91
2022-11-16T21:03:30.036Z,100173.38
2022-11-16T21:05:57.859Z,100171.00
2022-11-16T21:08:26.566Z,100178.19
2022-11-16T21:10:54.579Z,100177.25
2022-11-16T21:13:40.831Z,100165.00
2022-11-16T21:16:12.159Z,100179.53
2022-11-16T21:18:41.099Z,100171.13
2022-11-16T21:21:11.050Z,100182.25
2022-11-16T21:23:40.863Z,100176.91
2022-11-16T21:26:11.945Z,100179.81
2022-11-16T21:28:40.339Z,100174.47
2022-11-16T21:31:11.717Z,100174.31
2022-11-16T21:33:39.564Z,100166.75
2022-11-16T21:36:09.035Z,100174.53
2022-11-16T21:38:36.834Z,100183.09
2022-11-16T21:41:06.249Z,100173.53
2022-11-16T21:43:36.260Z,100178.22
2022-11-16T21:46:06.464Z,100172.88
2022-11-16T21:48:35.993Z,100178.22
2022-11-16T21:51:05.627Z,100177.75
2022-11-16T21:53:33.884Z,100180.97
2022-11-16T21:56:02.201Z,100176.06
2022-11-16T21:58:30.080Z,100175.00
2022-11-16T22:00:58.486Z,100174.72
2022-11-16T22:03:27.486Z,100175.88
2022-11-16T22:06:15.682Z,100169.94
2022-11-16T22:08:43.787Z,100172.59
2022-11-16T22:11:12.202Z,100167.03
2022-11-16T22:13:40.671Z,100182.31
2022-11-16T22:16:10.503Z,100172.38
2022-11-16T22:18:38.947Z,100176.75
2022-11-16T22:21:08.511Z,100168.03
2022-11-16T22:23:37.514Z,100167.25
2022-11-16T22:26:06.919Z,100172.59
2022-11-16T22:28:35.876Z,100170.75
2022-11-16T22:31:05.712Z,100180.06
2022-11-16T22:33:34.647Z,100168.53
2022-11-16T22:36:02.806Z,100182.19
2022-11-16T22:38:32.134Z,100174.88
2022-11-16T22:40:59.836Z,100182.34
2022-11-16T22:43:28.978Z,100180.38
2022-11-16T22:46:00.210Z,100169.94
2022-11-16T22:48:32.259Z,100167.34
2022-11-16T22:51:04.833Z,100162.00
2022-11-16T22:53:34.472Z,100157.34
2022-11-16T22:56:07.072Z,100158.13
2022-11-16T22:58:35.463Z,100140.41
2022-11-16T23:01:03.301Z,100159.25
2022-11-16T23:03:31.153Z,100146.75
2022-11-16T23:05:59.578Z,100153.44
2022-11-16T23:08:27.414Z,100161.28
2022-11-16T23:11:22.206Z,100158.47
2022-11-16T23:14:07.902Z,100164.09
2022-11-16T23:16:36.263Z,100155.34
2022-11-16T23:19:23.987Z,100154.22
2022-11-16T23:22:09.360Z,100155.25
2022-11-16T23:24:54.782Z,100156.94
2022-11-16T23:27:33.385Z,100141.66
2022-11-16T23:30:05.454Z,100138.44
2022-11-16T23:32:37.230Z,100140.59
2022-11-16T23:35:05.308Z,100130.22
2022-11-16T23:37:33.040Z,100137.22
2022-11-16T23:40:00.893Z,100132.44
2022-11-16T23:42:47.252Z,100135.41
2022-11-16T23:45:15.322Z,100138.34
2022-11-16T23:47:43.033Z,100115.06
2022-11-16T23:50:10.844Z,100112.56
2022-11-16T23:52:38.546Z,100119.09
2022-11-16T23:55:07.355Z,100122.97
2022-11-16T23:57:36.404Z,100122.97
